South Wardsboro, Vermont
Current Conditions -  °F | °C
As of 2:54 AM on Monday 22 Dec 2014 (Local Time) from KDDH Reporting Station
Haze Haze  
Wind Chill: -2°   Ceiling: 3600
Heat Index: -2°   Visibility: 4mi
Dew Point: -4°   Wind: 0mph
Humidity: 88%   Direction: NA
Pressure: 30.32"   Gusts: NA
Location:  43.0205°N, 72.8064°W
Report Text: KDDH 220754Z AUTO 00000KT 4SM BR OVC036 M02/M04 A3032 RMK AO2 SLP277 T10221039
Loading
Personal Weather Stations






























Interactive Weather Map New forecast layout! Learn more

10-Day Weather Forecast

Advertisements
Track Severe Weather on mobile